Time;durP1;ratioP1;P1;durP2;ratioP2;P2;SDS_P1;SDS_P2;PMS_P1;PMS_P2;Temp;Humidity;BMP_temperature;BMP_pressure;BME280_temperature;BME280_humidity;BME280_pressure;Samples;Min_cycle;Max_cycle;Signal;HPM_P1;HPM_P2
2023/01/29 00:01:55;;;;;;;21.23;9.75;;;;;;;;;;5030931;28;20029;-72
2023/01/29 00:04:21;;;;;;;18.20;8.90;;;;;;;;;;5031755;28;20068;-72
2023/01/29 00:06:46;;;;;;;12.52;6.30;;;;;;;;;;5020040;28;20443;-72
2023/01/29 00:09:12;;;;;;;8.63;4.78;;;;;;;;;;5019535;28;20037;-73
2023/01/29 00:11:38;;;;;;;15.70;5.93;;;;;;;;;;5026202;28;20469;-72
2023/01/29 00:14:04;;;;;;;17.33;5.43;;;;;;;;;;5026430;28;20025;-72
2023/01/29 00:16:29;;;;;;;11.30;4.80;;;;;;;;;;5010318;28;20037;-73
2023/01/29 00:18:55;;;;;;;11.27;5.65;;;;;;;;;;5017511;28;20034;-73
2023/01/29 00:21:21;;;;;;;17.15;6.05;;;;;;;;;;5031722;28;20026;-72
2023/01/29 00:23:47;;;;;;;13.55;6.32;;;;;;;;;;5025358;28;20478;-73
2023/01/29 00:26:12;;;;;;;17.40;7.03;;;;;;;;;;5044317;28;20048;-73
2023/01/29 00:28:38;;;;;;;16.92;6.30;;;;;;;;;;5020065;28;20038;-73
2023/01/29 00:31:23;;;;;;;13.05;6.10;;;;;;;;;;5019547;28;20036;-72
2023/01/29 00:33:48;;;;;;;13.23;5.25;;;;;;;;;;5020290;28;20096;-72
2023/01/29 00:36:15;;;;;;;12.88;5.75;;;;;;;;;;5024708;28;20037;-72
2023/01/29 00:38:41;;;;;;;15.30;6.15;;;;;;;;;;5031351;28;20045;-72
2023/01/29 00:46:39;;;;;;;;;;;;;;;;;;5017062;28;20132;-73
2023/01/29 00:49:05;;;;;;;11.00;5.55;;;;;;;;;;5016492;28;19965;-73
2023/01/29 00:51:31;;;;;;;13.77;6.38;;;;;;;;;;5023682;28;20046;-73
2023/01/29 00:54:01;;;;;;;14.30;6.78;;;;;;;;;;5029624;28;20055;-72
2023/01/29 00:56:28;;;;;;;13.50;7.15;;;;;;;;;;5013636;28;20108;-73
2023/01/29 00:58:54;;;;;;;12.30;6.45;;;;;;;;;;5014183;28;20124;-72
2023/01/29 01:03:04;;;;;;;12.50;6.65;;;;;;;;;;5024110;28;20104;-72
2023/01/29 01:04:06;;;;;;;11.20;6.32;;;;;;;;;;5016056;28;20420;-73
2023/01/29 01:06:31;;;;;;;16.00;6.75;;;;;;;;;;5024244;28;20040;-73
2023/01/29 01:11:40;;;;;;;16.98;7.43;;;;;;;;;;5008465;28;20037;-72
2023/01/29 01:14:06;;;;;;;17.20;7.38;;;;;;;;;;5022451;28;20120;-73
2023/01/29 01:16:31;;;;;;;15.00;7.68;;;;;;;;;;5019920;28;20017;-73
2023/01/29 01:18:56;;;;;;;20.67;7.63;;;;;;;;;;5030882;28;20496;-72
2023/01/29 01:21:22;;;;;;;11.10;5.82;;;;;;;;;;5022977;28;20034;-72
2023/01/29 01:23:50;;;;;;;15.02;6.57;;;;;;;;;;5022670;28;20033;-72
2023/01/29 01:26:16;;;;;;;13.55;5.72;;;;;;;;;;5018006;28;20033;-73
2023/01/29 01:28:41;;;;;;;10.82;5.40;;;;;;;;;;5013886;28;20371;-73
2023/01/29 01:31:12;;;;;;;12.18;5.30;;;;;;;;;;5014661;28;20390;-72
2023/01/29 01:33:37;;;;;;;11.57;5.38;;;;;;;;;;5012653;28;20524;-73
2023/01/29 01:36:03;;;;;;;15.10;6.07;;;;;;;;;;5024620;28;20069;-73
2023/01/29 01:38:29;;;;;;;10.38;6.13;;;;;;;;;;5022235;28;20466;-72
2023/01/29 01:40:54;;;;;;;16.48;8.40;;;;;;;;;;5026170;28;20033;-73
2023/01/29 01:43:20;;;;;;;15.43;7.55;;;;;;;;;;5029349;28;20431;-72
2023/01/29 01:45:45;;;;;;;18.40;8.05;;;;;;;;;;5025500;28;20026;-72
2023/01/29 01:48:24;;;;;;;16.80;7.07;;;;;;;;;;5026961;28;20040;-72
2023/01/29 01:50:53;;;;;;;14.45;6.80;;;;;;;;;;5025442;28;20098;-72
2023/01/29 01:53:37;;;;;;;13.10;5.65;;;;;;;;;;5022915;28;20111;-73
2023/01/29 01:56:15;;;;;;;9.65;4.97;;;;;;;;;;5022682;28;20037;-72
2023/01/29 01:58:54;;;;;;;12.82;5.38;;;;;;;;;;5019901;28;20041;-73
2023/01/29 02:01:27;;;;;;;12.68;5.50;;;;;;;;;;5026965;28;20189;-72
2023/01/29 02:09:40;;;;;;;14.32;4.90;;;;;;;;;;5023029;28;20041;-73
2023/01/29 02:12:08;;;;;;;10.25;4.45;;;;;;;;;;5028425;28;20477;-72
2023/01/29 02:14:37;;;;;;;8.60;5.05;;;;;;;;;;5025519;28;20042;-73
2023/01/29 02:17:07;;;;;;;21.83;5.25;;;;;;;;;;5030146;28;20124;-73
2023/01/29 02:19:44;;;;;;;11.45;5.22;;;;;;;;;;5027912;28;20041;-74
2023/01/29 02:22:29;;;;;;;11.23;5.07;;;;;;;;;;5025144;28;20042;-73
2023/01/29 02:25:08;;;;;;;13.40;5.70;;;;;;;;;;5015318;28;20041;-72
2023/01/29 02:28:04;;;;;;;9.50;5.25;;;;;;;;;;5021570;28;20041;-73
2023/01/29 02:30:37;;;;;;;10.35;4.68;;;;;;;;;;5011953;28;20033;-72
2023/01/29 02:33:21;;;;;;;12.82;5.30;;;;;;;;;;5022846;28;20049;-73
2023/01/29 02:35:56;;;;;;;10.50;5.15;;;;;;;;;;5022592;28;20053;-73
2023/01/29 02:38:56;;;;;;;13.10;5.60;;;;;;;;;;5025034;28;20056;-72
2023/01/29 02:41:43;;;;;;;10.30;4.97;;;;;;;;;;5022940;28;20034;-73
2023/01/29 02:44:39;;;;;;;12.02;5.60;;;;;;;;;;5017576;28;20069;-73
2023/01/29 02:47:30;;;;;;;23.95;10.25;;;;;;;;;;5003778;28;20080;-73
2023/01/29 02:50:06;;;;;;;22.58;9.32;;;;;;;;;;5022810;28;20412;-73
2023/01/29 02:53:11;;;;;;;21.38;10.05;;;;;;;;;;5027412;28;20057;-73
2023/01/29 02:55:42;;;;;;;21.58;9.48;;;;;;;;;;5008326;28;20095;-72
2023/01/29 02:58:31;;;;;;;23.95;10.05;;;;;;;;;;5029684;28;20437;-72
2023/01/29 03:01:01;;;;;;;24.00;9.98;;;;;;;;;;5010875;28;20063;-72
2023/01/29 03:03:34;;;;;;;18.02;8.70;;;;;;;;;;5023951;28;20091;-72
2023/01/29 03:06:19;;;;;;;15.02;7.70;;;;;;;;;;5026505;28;20096;-73
2023/01/29 03:08:52;;;;;;;;;;;;;;;;;;5030872;28;20444;-72
2023/01/29 03:11:18;;;;;;;13.32;6.22;;;;;;;;;;5034374;28;19917;-72
2023/01/29 03:13:49;;;;;;;10.52;5.10;;;;;;;;;;5031409;28;20408;-72
2023/01/29 03:16:34;;;;;;;14.27;5.75;;;;;;;;;;5025609;28;20072;-72
2023/01/29 03:19:17;;;;;;;12.02;5.00;;;;;;;;;;5027695;28;20034;-73
2023/01/29 03:22:05;;;;;;;7.78;4.88;;;;;;;;;;5028165;28;20060;-73
2023/01/29 03:33:44;;;;;;;14.18;5.00;;;;;;;;;;4980640;28;20652;-73
2023/01/29 03:36:36;;;;;;;14.20;5.43;;;;;;;;;;5006003;28;20049;-73
2023/01/29 03:39:06;;;;;;;8.02;4.88;;;;;;;;;;5019527;28;20104;-72
2023/01/29 03:41:39;;;;;;;8.82;5.07;;;;;;;;;;5020572;28;20037;-73
2023/01/29 03:44:14;;;;;;;9.73;4.93;;;;;;;;;;5024636;28;20040;-73
2023/01/29 03:46:55;;;;;;;14.63;5.32;;;;;;;;;;5017787;28;20394;-72
2023/01/29 03:50:01;;;;;;;12.25;5.53;;;;;;;;;;5019069;28;20052;-72
2023/01/29 03:52:41;;;;;;;11.55;5.40;;;;;;;;;;5016974;28;20191;-72
2023/01/29 03:55:14;;;;;;;11.00;5.47;;;;;;;;;;5016537;28;20045;-73
2023/01/29 03:57:44;;;;;;;8.25;4.85;;;;;;;;;;5020142;28;20367;-73
2023/01/29 04:00:22;;;;;;;11.15;5.40;;;;;;;;;;5030284;28;20512;-73
2023/01/29 04:03:23;;;;;;;11.02;4.85;;;;;;;;;;5023538;28;20065;-72
2023/01/29 04:06:04;;;;;;;13.05;5.25;;;;;;;;;;5016327;28;20034;-73
2023/01/29 04:08:31;;;;;;;15.45;5.82;;;;;;;;;;5026010;28;20037;-73
2023/01/29 04:10:59;;;;;;;12.05;5.50;;;;;;;;;;5000520;28;20104;-72
2023/01/29 04:13:26;;;;;;;10.52;5.07;;;;;;;;;;5022354;28;20445;-72
2023/01/29 04:15:58;;;;;;;10.23;5.10;;;;;;;;;;5018231;28;20117;-72
2023/01/29 04:18:24;;;;;;;11.10;5.30;;;;;;;;;;5021267;28;20128;-72
2023/01/29 04:20:50;;;;;;;16.25;4.75;;;;;;;;;;5019345;28;20109;-74
2023/01/29 04:23:23;;;;;;;9.57;4.75;;;;;;;;;;5023191;28;20032;-72
2023/01/29 04:26:13;;;;;;;8.57;4.57;;;;;;;;;;5037205;28;20034;-72
2023/01/29 04:28:46;;;;;;;10.80;5.53;;;;;;;;;;4998939;28;20050;-72
2023/01/29 04:31:12;;;;;;;10.37;5.17;;;;;;;;;;5021495;28;20096;-73
2023/01/29 04:33:44;;;;;;;19.00;4.72;;;;;;;;;;5018500;28;20266;-72
2023/01/29 04:36:17;;;;;;;13.73;4.97;;;;;;;;;;5022255;28;20088;-73
2023/01/29 04:38:51;;;;;;;9.77;5.55;;;;;;;;;;5024674;28;20041;-72
2023/01/29 04:41:21;;;;;;;10.75;4.75;;;;;;;;;;5014818;28;20489;-74
2023/01/29 04:44:10;;;;;;;14.75;5.38;;;;;;;;;;5026784;28;20064;-72
2023/01/29 04:47:14;;;;;;;19.02;5.40;;;;;;;;;;5017252;28;20050;-74
2023/01/29 04:49:42;;;;;;;10.00;4.63;;;;;;;;;;5025876;28;20041;-72
2023/01/29 04:52:45;;;;;;;11.30;5.05;;;;;;;;;;5020585;28;20038;-73
2023/01/29 04:55:34;;;;;;;11.45;4.88;;;;;;;;;;5017263;28;20052;-72
2023/01/29 04:58:09;;;;;;;10.55;4.68;;;;;;;;;;5020218;28;20362;-72
2023/01/29 05:00:41;;;;;;;10.55;5.30;;;;;;;;;;5029315;28;20044;-72
2023/01/29 05:03:08;;;;;;;8.70;4.68;;;;;;;;;;5029519;28;20444;-73
2023/01/29 05:05:34;;;;;;;9.18;4.93;;;;;;;;;;5020159;28;20032;-72
2023/01/29 05:07:59;;;;;;;11.50;4.63;;;;;;;;;;5020056;28;20042;-72
2023/01/29 05:10:25;;;;;;;15.07;4.78;;;;;;;;;;5016497;28;20040;-73
2023/01/29 05:12:57;;;;;;;8.85;5.20;;;;;;;;;;5025841;28;20032;-72
2023/01/29 05:15:27;;;;;;;9.02;4.40;;;;;;;;;;5039545;28;20068;-72
2023/01/29 05:17:53;;;;;;;19.92;5.68;;;;;;;;;;5028071;28;20057;-72
2023/01/29 05:20:19;;;;;;;15.00;5.35;;;;;;;;;;5023857;28;20065;-72
2023/01/29 05:22:45;;;;;;;11.13;5.05;;;;;;;;;;5023289;28;20033;-72
2023/01/29 05:25:23;;;;;;;11.07;4.90;;;;;;;;;;5020118;28;20060;-73
2023/01/29 05:30:36;;;;;;;9.57;5.20;;;;;;;;;;5011667;28;20625;-73
2023/01/29 05:33:02;;;;;;;10.50;5.43;;;;;;;;;;5016584;28;20030;-73
2023/01/29 05:35:28;;;;;;;20.00;5.47;;;;;;;;;;5029891;28;20416;-72
2023/01/29 05:37:55;;;;;;;17.55;5.90;;;;;;;;;;5030343;28;20037;-73
2023/01/29 05:40:21;;;;;;;14.27;5.97;;;;;;;;;;5015119;28;20038;-73
2023/01/29 05:42:46;;;;;;;12.02;5.65;;;;;;;;;;5015763;28;20036;-73
2023/01/29 05:45:12;;;;;;;9.65;5.10;;;;;;;;;;5014635;28;20101;-72
2023/01/29 05:47:37;;;;;;;9.77;4.40;;;;;;;;;;5019106;28;20396;-72
2023/01/29 05:50:02;;;;;;;11.70;4.78;;;;;;;;;;5026890;28;20030;-73
2023/01/29 05:52:28;;;;;;;9.77;4.32;;;;;;;;;;5023322;28;20069;-73
2023/01/29 05:54:53;;;;;;;14.93;4.30;;;;;;;;;;5023291;28;20383;-73
2023/01/29 05:57:19;;;;;;;8.18;4.65;;;;;;;;;;5024935;28;20033;-72
2023/01/29 05:59:44;;;;;;;8.90;4.10;;;;;;;;;;5023135;28;20081;-73
2023/01/29 06:02:09;;;;;;;12.35;4.60;;;;;;;;;;5015912;28;20112;-73
2023/01/29 06:04:35;;;;;;;8.15;4.30;;;;;;;;;;5016523;28;20040;-72
2023/01/29 06:07:02;;;;;;;8.20;4.00;;;;;;;;;;5020527;28;20026;-72
2023/01/29 06:09:28;;;;;;;7.40;3.83;;;;;;;;;;5025510;28;20053;-72
2023/01/29 06:11:53;;;;;;;9.70;3.80;;;;;;;;;;5017339;28;20030;-73
2023/01/29 06:14:19;;;;;;;8.73;4.28;;;;;;;;;;5018684;28;20029;-72
2023/01/29 06:16:44;;;;;;;6.63;3.60;;;;;;;;;;5023858;28;20474;-72
2023/01/29 06:19:09;;;;;;;12.73;3.78;;;;;;;;;;5017039;28;20030;-73
2023/01/29 06:21:35;;;;;;;6.40;3.88;;;;;;;;;;5022458;28;20036;-72
2023/01/29 06:24:00;;;;;;;7.43;4.18;;;;;;;;;;5019119;28;20420;-72
2023/01/29 06:26:26;;;;;;;10.45;3.95;;;;;;;;;;5016405;28;20029;-73
2023/01/29 06:28:51;;;;;;;10.85;3.65;;;;;;;;;;5016348;28;20540;-73
2023/01/29 06:31:17;;;;;;;7.65;4.30;;;;;;;;;;5017715;28;20129;-72
2023/01/29 06:33:43;;;;;;;6.03;3.85;;;;;;;;;;5023470;28;20458;-73
2023/01/29 06:36:08;;;;;;;6.45;3.50;;;;;;;;;;5025693;28;20080;-72
2023/01/29 06:38:34;;;;;;;7.15;3.40;;;;;;;;;;5023652;28;20053;-72
2023/01/29 06:40:59;;;;;;;8.20;3.75;;;;;;;;;;5028896;28;20116;-73
2023/01/29 06:43:25;;;;;;;7.03;3.78;;;;;;;;;;5027715;28;20112;-72
2023/01/29 06:45:52;;;;;;;5.95;3.60;;;;;;;;;;5028678;28;20042;-72
2023/01/29 06:48:18;;;;;;;8.32;3.72;;;;;;;;;;5029631;28;20057;-72
2023/01/29 06:50:43;;;;;;;6.50;3.75;;;;;;;;;;5036318;28;20430;-73
2023/01/29 06:53:09;;;;;;;13.35;4.38;;;;;;;;;;5024951;28;20394;-73
2023/01/29 06:55:34;;;;;;;5.80;3.45;;;;;;;;;;5020396;28;20108;-72
2023/01/29 06:58:04;;;;;;;8.38;4.22;;;;;;;;;;5030118;28;20390;-73
2023/01/29 07:00:29;;;;;;;10.27;3.95;;;;;;;;;;5025588;28;20084;-72
2023/01/29 07:02:55;;;;;;;7.22;3.50;;;;;;;;;;5030889;28;20420;-73
2023/01/29 07:05:20;;;;;;;7.38;3.97;;;;;;;;;;5026550;28;20025;-72
2023/01/29 07:07:45;;;;;;;7.00;3.67;;;;;;;;;;5030292;28;20171;-72
2023/01/29 07:10:11;;;;;;;7.80;3.55;;;;;;;;;;5032435;28;20038;-73
2023/01/29 07:12:36;;;;;;;6.53;3.70;;;;;;;;;;5029917;28;20078;-72
2023/01/29 07:15:01;;;;;;;6.28;3.92;;;;;;;;;;5021036;28;20045;-72
2023/01/29 07:17:27;;;;;;;11.40;4.28;;;;;;;;;;5019756;28;20112;-72
2023/01/29 07:19:52;;;;;;;5.57;3.50;;;;;;;;;;5026463;28;20034;-72
2023/01/29 07:22:17;;;;;;;6.68;3.35;;;;;;;;;;5025687;28;20461;-72
2023/01/29 07:24:43;;;;;;;6.70;3.70;;;;;;;;;;5034874;28;20033;-73
2023/01/29 07:27:08;;;;;;;8.02;3.30;;;;;;;;;;5018220;28;20022;-73
2023/01/29 07:29:33;;;;;;;9.82;3.85;;;;;;;;;;5027293;28;20382;-73
2023/01/29 07:31:59;;;;;;;11.35;4.18;;;;;;;;;;5022810;28;20033;-72
2023/01/29 07:34:24;;;;;;;6.05;3.70;;;;;;;;;;5023471;28;20111;-73
2023/01/29 07:36:52;;;;;;;8.13;3.80;;;;;;;;;;5026477;28;20045;-73
2023/01/29 07:39:18;;;;;;;7.57;3.42;;;;;;;;;;5023138;28;20025;-73
2023/01/29 07:41:43;;;;;;;8.07;3.80;;;;;;;;;;5017402;28;20025;-73
2023/01/29 07:44:09;;;;;;;8.90;3.90;;;;;;;;;;5029197;28;20443;-73
2023/01/29 07:46:34;;;;;;;7.38;3.80;;;;;;;;;;5028876;28;20034;-73
2023/01/29 07:48:59;;;;;;;8.13;3.88;;;;;;;;;;5021332;28;20029;-73
2023/01/29 07:51:25;;;;;;;9.13;3.97;;;;;;;;;;5027964;28;20534;-73
2023/01/29 07:53:50;;;;;;;9.07;3.70;;;;;;;;;;5028781;28;20111;-73
2023/01/29 07:56:17;;;;;;;6.93;3.38;;;;;;;;;;5026809;28;20053;-73
2023/01/29 07:58:42;;;;;;;9.13;3.80;;;;;;;;;;5022213;28;20389;-73
2023/01/29 08:01:08;;;;;;;8.82;4.20;;;;;;;;;;5027869;28;20033;-73
2023/01/29 08:03:33;;;;;;;7.65;4.07;;;;;;;;;;5023823;28;20038;-73
2023/01/29 08:05:58;;;;;;;8.50;3.67;;;;;;;;;;5027363;28;20048;-73
2023/01/29 08:08:24;;;;;;;8.88;3.55;;;;;;;;;;5026516;28;20025;-73
2023/01/29 08:10:50;;;;;;;7.40;3.70;;;;;;;;;;5022020;28;20033;-73
2023/01/29 08:13:15;;;;;;;8.20;4.07;;;;;;;;;;5018864;28;20529;-73
2023/01/29 08:15:44;;;;;;;7.50;3.78;;;;;;;;;;5021054;28;20033;-73
2023/01/29 08:18:10;;;;;;;7.20;3.95;;;;;;;;;;5017715;28;20041;-74
2023/01/29 08:20:35;;;;;;;6.00;3.83;;;;;;;;;;5014519;28;20041;-74
2023/01/29 08:23:03;;;;;;;7.45;3.10;;;;;;;;;;5027091;28;20030;-73
2023/01/29 08:25:28;;;;;;;7.57;3.95;;;;;;;;;;5015344;28;20036;-73
2023/01/29 08:27:56;;;;;;;9.40;4.05;;;;;;;;;;5023158;28;20041;-73
2023/01/29 08:30:22;;;;;;;6.70;3.47;;;;;;;;;;5016376;28;20026;-73
2023/01/29 08:32:47;;;;;;;11.60;3.35;;;;;;;;;;5023235;28;20034;-73
2023/01/29 08:35:13;;;;;;;10.07;3.50;;;;;;;;;;5034311;28;20049;-73
2023/01/29 08:37:38;;;;;;;11.50;3.88;;;;;;;;;;5029721;28;20052;-73
2023/01/29 08:40:04;;;;;;;8.88;3.72;;;;;;;;;;5028927;28;20028;-73
2023/01/29 08:42:29;;;;;;;8.20;3.40;;;;;;;;;;5029069;28;20456;-73
2023/01/29 08:44:55;;;;;;;7.53;3.63;;;;;;;;;;5022859;28;20038;-73
2023/01/29 08:47:20;;;;;;;7.13;3.53;;;;;;;;;;5019172;28;20106;-73
2023/01/29 08:49:46;;;;;;;8.90;3.80;;;;;;;;;;5018759;28;20096;-73
2023/01/29 08:52:11;;;;;;;10.02;3.42;;;;;;;;;;5026975;28;20045;-73
2023/01/29 08:54:37;;;;;;;7.82;3.40;;;;;;;;;;5023587;28;20030;-73
2023/01/29 08:57:02;;;;;;;9.13;3.55;;;;;;;;;;5031910;28;20076;-74
2023/01/29 08:59:27;;;;;;;6.45;3.30;;;;;;;;;;5024809;28;20025;-73
2023/01/29 09:01:53;;;;;;;10.23;3.50;;;;;;;;;;5028048;28;20108;-74
2023/01/29 09:04:18;;;;;;;5.38;2.72;;;;;;;;;;5025207;28;20462;-74
2023/01/29 09:06:44;;;;;;;5.28;2.63;;;;;;;;;;5026618;28;20029;-74
2023/01/29 09:09:10;;;;;;;5.75;2.60;;;;;;;;;;5026071;28;20417;-73
2023/01/29 09:11:36;;;;;;;5.68;3.00;;;;;;;;;;5029432;28;20042;-74
2023/01/29 09:14:02;;;;;;;5.63;2.70;;;;;;;;;;5030923;28;20080;-74
2023/01/29 09:16:27;;;;;;;5.25;2.67;;;;;;;;;;5022424;28;20395;-74
2023/01/29 09:18:53;;;;;;;7.45;3.28;;;;;;;;;;5024287;28;20041;-74
2023/01/29 09:21:19;;;;;;;8.02;2.80;;;;;;;;;;5020262;28;20022;-74
2023/01/29 09:23:44;;;;;;;5.68;2.83;;;;;;;;;;5016258;28;20028;-74
2023/01/29 09:26:10;;;;;;;4.80;2.90;;;;;;;;;;5025305;28;20059;-74
2023/01/29 09:28:35;;;;;;;5.93;2.33;;;;;;;;;;5021104;28;20057;-75
2023/01/29 09:31:01;;;;;;;5.22;2.88;;;;;;;;;;5018255;28;20029;-74
2023/01/29 09:33:27;;;;;;;6.32;2.75;;;;;;;;;;5021401;28;20073;-74
2023/01/29 09:35:52;;;;;;;6.57;2.85;;;;;;;;;;5027288;28;20462;-74
2023/01/29 09:38:17;;;;;;;8.88;2.47;;;;;;;;;;5025127;28;20138;-74
2023/01/29 09:40:50;;;;;;;8.50;2.67;;;;;;;;;;5019630;28;20119;-74
2023/01/29 09:43:19;;;;;;;7.85;3.58;;;;;;;;;;5016471;28;20014;-74
2023/01/29 09:46:26;;;;;;;5.88;2.70;;;;;;;;;;5017200;28;20444;-74
2023/01/29 09:49:22;;;;;;;5.78;2.75;;;;;;;;;;5008229;28;20034;-74
2023/01/29 09:51:55;;;;;;;9.82;2.53;;;;;;;;;;5020807;28;20543;-74
2023/01/29 09:54:26;;;;;;;4.13;2.08;;;;;;;;;;5018719;28;20469;-74
2023/01/29 09:56:55;;;;;;;4.85;2.40;;;;;;;;;;5016325;28;20402;-74
2023/01/29 09:59:24;;;;;;;5.82;2.47;;;;;;;;;;5022782;28;20492;-74
2023/01/29 10:02:09;;;;;;;6.68;2.45;;;;;;;;;;5022264;28;20038;-73
2023/01/29 10:04:56;;;;;;;6.68;2.75;;;;;;;;;;5021767;28;20045;-74
2023/01/29 10:07:35;;;;;;;5.57;3.00;;;;;;;;;;5029127;28;20030;-73
2023/01/29 10:10:34;;;;;;;11.88;4.63;;;;;;;;;;5017608;28;20038;-74
2023/01/29 10:13:12;;;;;;;9.48;3.90;;;;;;;;;;5021119;28;20045;-74
2023/01/29 10:15:46;;;;;;;10.10;3.63;;;;;;;;;;5020736;28;20068;-74
2023/01/29 10:18:36;;;;;;;7.63;3.50;;;;;;;;;;5024003;28;20065;-74
2023/01/29 10:21:08;;;;;;;9.18;3.22;;;;;;;;;;5022559;28;20458;-74
2023/01/29 10:23:37;;;;;;;6.93;3.90;;;;;;;;;;5016383;28;20402;-74
2023/01/29 10:26:02;;;;;;;10.32;4.35;;;;;;;;;;5019913;28;20535;-74
2023/01/29 10:28:36;;;;;;;7.35;4.72;;;;;;;;;;5026048;28;20038;-74
2023/01/29 10:31:14;;;;;;;;;;;;;;;;;;5020427;28;20469;-74
2023/01/29 10:33:41;;;;;;;8.98;5.75;;;;;;;;;;5010944;28;19917;-74
2023/01/29 10:36:15;;;;;;;9.40;5.20;;;;;;;;;;5023136;28;20041;-74
2023/01/29 10:38:45;;;;;;;8.98;5.07;;;;;;;;;;5018777;28;20044;-75
2023/01/29 10:41:29;;;;;;;8.30;4.80;;;;;;;;;;5015719;28;20045;-74
2023/01/29 10:44:01;;;;;;;10.68;5.03;;;;;;;;;;5022192;28;20034;-75
2023/01/29 10:46:26;;;;;;;8.52;4.90;;;;;;;;;;5024949;28;20049;-74
2023/01/29 10:49:04;;;;;;;8.50;5.18;;;;;;;;;;5029154;28;20040;-74
2023/01/29 10:51:54;;;;;;;9.70;5.00;;;;;;;;;;5019921;28;20532;-74
2023/01/29 10:54:26;;;;;;;10.05;4.95;;;;;;;;;;5022676;28;20049;-74
2023/01/29 10:57:06;;;;;;;10.80;5.50;;;;;;;;;;5023848;28;20038;-74
2023/01/29 10:59:34;;;;;;;9.32;5.13;;;;;;;;;;5017114;28;20528;-74
2023/01/29 11:02:02;;;;;;;10.50;5.68;;;;;;;;;;5016704;28;20038;-74
2023/01/29 11:04:27;;;;;;;12.27;5.93;;;;;;;;;;5014413;28;20136;-74
2023/01/29 11:06:53;;;;;;;12.23;6.38;;;;;;;;;;5021878;28;20080;-74
2023/01/29 11:09:31;;;;;;;14.52;7.80;;;;;;;;;;5019324;28;20037;-74
2023/01/29 11:12:15;;;;;;;15.73;7.85;;;;;;;;;;5025208;28;20090;-74
2023/01/29 11:14:54;;;;;;;11.75;6.63;;;;;;;;;;5023876;28;20045;-74
2023/01/29 11:17:24;;;;;;;13.07;7.10;;;;;;;;;;5008137;28;20040;-74
2023/01/29 11:19:51;;;;;;;19.42;7.80;;;;;;;;;;5016933;28;20038;-74
2023/01/29 11:22:21;;;;;;;14.00;7.18;;;;;;;;;;5015179;28;20050;-72
2023/01/29 11:25:09;;;;;;;15.02;8.45;;;;;;;;;;5020253;28;20044;-74
2023/01/29 11:27:42;;;;;;;14.20;8.55;;;;;;;;;;5014974;28;20120;-74
2023/01/29 11:30:14;;;;;;;20.00;9.70;;;;;;;;;;5019251;28;20037;-75
2023/01/29 11:32:40;;;;;;;14.82;8.30;;;;;;;;;;5025066;28;20116;-74
2023/01/29 11:35:14;;;;;;;9.20;5.43;;;;;;;;;;5011805;28;20461;-75
2023/01/29 11:37:42;;;;;;;17.42;8.25;;;;;;;;;;5026074;28;20060;-77
2023/01/29 11:40:22;;;;;;;12.45;7.05;;;;;;;;;;5021487;28;20026;-75
2023/01/29 11:42:49;;;;;;;8.10;5.18;;;;;;;;;;5028762;28;20088;-74
2023/01/29 11:45:31;;;;;;;10.00;5.28;;;;;;;;;;5029737;28;20468;-75
2023/01/29 11:47:57;;;;;;;7.25;4.55;;;;;;;;;;5029683;28;20053;-75
2023/01/29 11:50:27;;;;;;;8.15;4.30;;;;;;;;;;5030202;28;20036;-74
2023/01/29 11:52:52;;;;;;;5.68;3.63;;;;;;;;;;5026269;28;20053;-74
2023/01/29 11:55:23;;;;;;;6.00;4.07;;;;;;;;;;5022758;28;20466;-75
2023/01/29 11:58:10;;;;;;;6.85;4.20;;;;;;;;;;5022071;28;20488;-74
2023/01/29 12:00:38;;;;;;;6.60;3.67;;;;;;;;;;5015941;28;20490;-74
2023/01/29 12:03:42;;;;;;;9.52;5.05;;;;;;;;;;5018024;28;20049;-74
2023/01/29 12:06:21;;;;;;;4.73;2.90;;;;;;;;;;5022174;28;20048;-75
2023/01/29 12:08:58;;;;;;;7.05;4.00;;;;;;;;;;5023906;28;20305;-74
2023/01/29 12:11:28;;;;;;;5.72;3.22;;;;;;;;;;5007120;28;20478;-74
2023/01/29 12:13:59;;;;;;;6.32;3.45;;;;;;;;;;5023566;28;20030;-74
2023/01/29 12:16:50;;;;;;;9.90;5.25;;;;;;;;;;5020745;28;20042;-73
2023/01/29 12:19:31;;;;;;;7.65;3.30;;;;;;;;;;5018232;28;20033;-73
2023/01/29 12:22:28;;;;;;;3.17;2.08;;;;;;;;;;5032367;28;20030;-74
2023/01/29 12:25:11;;;;;;;3.08;1.95;;;;;;;;;;5025171;28;20037;-74
2023/01/29 12:27:48;;;;;;;3.53;2.10;;;;;;;;;;4998832;28;20041;-74
2023/01/29 12:30:19;;;;;;;3.63;2.10;;;;;;;;;;5020467;28;20068;-74
2023/01/29 12:32:48;;;;;;;3.92;1.90;;;;;;;;;;5017572;28;20037;-74
2023/01/29 12:35:19;;;;;;;5.10;3.08;;;;;;;;;;5015053;28;20041;-74
2023/01/29 12:38:00;;;;;;;4.72;2.22;;;;;;;;;;5021294;28;20462;-74
2023/01/29 12:40:32;;;;;;;2.55;1.27;;;;;;;;;;5029433;28;20030;-74
2023/01/29 12:43:03;;;;;;;2.47;1.50;;;;;;;;;;5014957;28;20037;-74
2023/01/29 12:45:29;;;;;;;3.47;1.17;;;;;;;;;;5023132;28;20386;-74
2023/01/29 12:48:01;;;;;;;1.83;1.00;;;;;;;;;;5023192;28;20037;-74
2023/01/29 12:50:29;;;;;;;1.73;0.90;;;;;;;;;;5026041;28;20116;-74
2023/01/29 12:52:59;;;;;;;1.77;1.00;;;;;;;;;;5033521;28;20041;-74
2023/01/29 12:55:27;;;;;;;2.53;1.20;;;;;;;;;;5019036;28;20037;-74
2023/01/29 12:57:58;;;;;;;2.53;1.20;;;;;;;;;;5014854;28;20073;-74
2023/01/29 13:00:27;;;;;;;3.25;1.10;;;;;;;;;;5017900;28;20522;-74
2023/01/29 13:03:20;;;;;;;1.83;1.00;;;;;;;;;;5022771;28;20034;-74
2023/01/29 13:06:09;;;;;;;6.18;1.50;;;;;;;;;;5029372;28;20042;-73
2023/01/29 13:08:41;;;;;;;3.30;1.40;;;;;;;;;;5022153;28;20116;-74
2023/01/29 13:11:18;;;;;;;2.90;1.48;;;;;;;;;;5025874;28;20068;-74
2023/01/29 13:13:53;;;;;;;2.70;1.40;;;;;;;;;;5020487;28;20453;-73
2023/01/29 13:16:22;;;;;;;2.00;1.00;;;;;;;;;;5026373;28;20539;-74
2023/01/29 13:18:56;;;;;;;2.90;1.35;;;;;;;;;;5027465;28;20474;-74
2023/01/29 13:21:24;;;;;;;3.03;1.50;;;;;;;;;;5017874;28;20056;-74
2023/01/29 13:24:00;;;;;;;3.30;1.45;;;;;;;;;;5015380;28;20041;-73
2023/01/29 13:26:26;;;;;;;2.33;1.10;;;;;;;;;;5017269;28;20083;-74
2023/01/29 13:28:52;;;;;;;2.47;1.17;;;;;;;;;;5017912;28;20045;-74
2023/01/29 13:31:25;;;;;;;3.67;1.20;;;;;;;;;;5016843;28;20036;-74
2023/01/29 13:33:58;;;;;;;2.03;0.80;;;;;;;;;;5029802;28;20072;-73
2023/01/29 13:36:26;;;;;;;3.05;1.00;;;;;;;;;;5023786;28;20120;-73
2023/01/29 13:38:59;;;;;;;2.17;0.98;;;;;;;;;;5030560;28;20457;-75
2023/01/29 13:41:36;;;;;;;2.70;0.90;;;;;;;;;;5028158;28;20378;-73
2023/01/29 13:44:04;;;;;;;2.65;0.90;;;;;;;;;;5024421;28;20037;-74
2023/01/29 13:46:30;;;;;;;2.35;1.10;;;;;;;;;;5018730;28;20068;-73
2023/01/29 13:48:59;;;;;;;2.00;0.95;;;;;;;;;;5027918;28;20461;-73
2023/01/29 13:51:34;;;;;;;2.13;0.90;;;;;;;;;;5009442;28;20378;-74
2023/01/29 13:54:03;;;;;;;1.63;0.88;;;;;;;;;;5032221;28;20045;-73
2023/01/29 13:56:31;;;;;;;1.75;0.90;;;;;;;;;;5019052;28;20030;-74
2023/01/29 13:58:58;;;;;;;1.50;0.70;;;;;;;;;;5025538;28;20111;-74
2023/01/29 14:01:45;;;;;;;1.55;0.70;;;;;;;;;;5041714;28;20041;-74
2023/01/29 14:04:31;;;;;;;1.52;0.80;;;;;;;;;;5029247;28;20083;-74
2023/01/29 14:06:57;;;;;;;2.38;0.80;;;;;;;;;;5041184;28;20046;-74
2023/01/29 14:09:53;;;;;;;1.35;0.80;;;;;;;;;;5031679;28;20041;-75
2023/01/29 14:12:22;;;;;;;0.98;0.70;;;;;;;;;;5025231;28;20087;-74
2023/01/29 14:14:47;;;;;;;1.50;0.80;;;;;;;;;;5025723;28;20050;-74
2023/01/29 14:17:17;;;;;;;2.83;0.90;;;;;;;;;;5028181;28;20095;-74
2023/01/29 14:19:50;;;;;;;1.33;0.85;;;;;;;;;;5022909;28;20409;-74
2023/01/29 14:22:25;;;;;;;1.90;1.00;;;;;;;;;;5019712;28;20037;-73
2023/01/29 14:25:02;;;;;;;2.50;0.90;;;;;;;;;;5027032;28;20073;-73
2023/01/29 14:27:28;;;;;;;2.55;1.10;;;;;;;;;;5047058;28;20087;-73
2023/01/29 14:30:12;;;;;;;1.92;1.10;;;;;;;;;;5018706;28;20041;-74
2023/01/29 14:32:38;;;;;;;2.80;1.00;;;;;;;;;;5012929;28;20065;-74
2023/01/29 14:35:29;;;;;;;1.80;1.00;;;;;;;;;;5028940;28;20554;-74
2023/01/29 14:37:57;;;;;;;1.70;1.00;;;;;;;;;;5017605;28;20034;-74
2023/01/29 14:40:25;;;;;;;1.60;0.90;;;;;;;;;;5021517;28;20034;-74
2023/01/29 14:43:20;;;;;;;1.35;0.85;;;;;;;;;;5016101;28;20033;-74
2023/01/29 14:45:47;;;;;;;2.83;0.95;;;;;;;;;;5012682;28;20049;-73
2023/01/29 14:48:34;;;;;;;3.50;1.20;;;;;;;;;;5016627;28;20397;-73
2023/01/29 14:51:05;;;;;;;1.90;1.02;;;;;;;;;;5021759;28;20113;-73
2023/01/29 14:53:54;;;;;;;1.80;1.00;;;;;;;;;;5019229;28;20050;-74
2023/01/29 14:56:59;;;;;;;1.58;0.90;;;;;;;;;;5019882;28;20038;-74
2023/01/29 14:59:36;;;;;;;1.85;0.88;;;;;;;;;;5006019;28;20041;-74
2023/01/29 15:02:11;;;;;;;4.40;1.00;;;;;;;;;;5022968;28;20049;-74
2023/01/29 15:04:43;;;;;;;2.83;1.02;;;;;;;;;;5023804;28;20444;-74
2023/01/29 15:07:08;;;;;;;2.65;1.00;;;;;;;;;;5029390;28;20400;-74
2023/01/29 15:09:51;;;;;;;1.90;1.13;;;;;;;;;;5021918;28;20030;-74
2023/01/29 15:12:23;;;;;;;2.10;0.93;;;;;;;;;;5013919;28;20049;-75
2023/01/29 15:15:34;;;;;;;1.05;0.70;;;;;;;;;;5016309;28;20133;-74
2023/01/29 15:18:16;;;;;;;2.00;1.00;;;;;;;;;;5014824;28;20054;-74
2023/01/29 15:20:42;;;;;;;1.65;0.80;;;;;;;;;;5013980;28;20379;-74
2023/01/29 15:23:32;;;;;;;1.25;0.80;;;;;;;;;;5000621;28;20406;-74
2023/01/29 15:26:00;;;;;;;2.08;1.10;;;;;;;;;;5015665;28;20054;-74
2023/01/29 15:28:32;;;;;;;2.80;1.08;;;;;;;;;;5015790;28;20040;-75
2023/01/29 15:31:00;;;;;;;3.60;1.77;;;;;;;;;;5014228;28;20034;-73
2023/01/29 15:33:26;;;;;;;2.13;1.10;;;;;;;;;;4997879;28;20153;-73